sensor_id;sensor_type;location;lat;lon;timestamp;P1;durP1;ratioP1;P2;durP2;ratioP2
6205;SDS011;3136;48.788;9.772;2024-02-26T00:00:32;1.30;;;1.20;;
6205;SDS011;3136;48.788;9.772;2024-02-26T00:02:59;3.00;;;1.50;;
6205;SDS011;3136;48.788;9.772;2024-02-26T00:05:26;1.30;;;1.20;;
6205;SDS011;3136;48.788;9.772;2024-02-26T00:07:51;2.00;;;1.50;;
6205;SDS011;3136;48.788;9.772;2024-02-26T00:10:17;1.63;;;1.50;;
6205;SDS011;3136;48.788;9.772;2024-02-26T00:12:43;1.60;;;1.50;;
6205;SDS011;3136;48.788;9.772;2024-02-26T00:15:09;1.83;;;1.60;;
6205;SDS011;3136;48.788;9.772;2024-02-26T00:17:35;2.77;;;1.90;;
6205;SDS011;3136;48.788;9.772;2024-02-26T00:20:02;2.00;;;1.63;;
6205;SDS011;3136;48.788;9.772;2024-02-26T00:22:29;4.23;;;1.83;;
6205;SDS011;3136;48.788;9.772;2024-02-26T00:24:55;1.93;;;1.53;;
6205;SDS011;3136;48.788;9.772;2024-02-26T00:27:21;2.20;;;1.70;;
6205;SDS011;3136;48.788;9.772;2024-02-26T00:29:46;4.10;;;1.77;;
6205;SDS011;3136;48.788;9.772;2024-02-26T00:32:12;1.67;;;1.57;;
6205;SDS011;3136;48.788;9.772;2024-02-26T00:34:37;2.47;;;1.50;;
6205;SDS011;3136;48.788;9.772;2024-02-26T00:37:03;1.60;;;1.50;;
6205;SDS011;3136;48.788;9.772;2024-02-26T00:39:29;1.83;;;1.50;;
6205;SDS011;3136;48.788;9.772;2024-02-26T00:41:54;1.87;;;1.57;;
6205;SDS011;3136;48.788;9.772;2024-02-26T00:44:20;1.67;;;1.43;;
6205;SDS011;3136;48.788;9.772;2024-02-26T00:46:45;2.60;;;1.70;;
6205;SDS011;3136;48.788;9.772;2024-02-26T00:49:11;2.27;;;1.50;;
6205;SDS011;3136;48.788;9.772;2024-02-26T00:51:36;2.20;;;1.60;;
6205;SDS011;3136;48.788;9.772;2024-02-26T00:54:02;3.17;;;1.80;;
6205;SDS011;3136;48.788;9.772;2024-02-26T00:56:27;4.40;;;1.60;;
6205;SDS011;3136;48.788;9.772;2024-02-26T00:58:53;1.87;;;1.50;;
6205;SDS011;3136;48.788;9.772;2024-02-26T01:01:19;2.77;;;1.50;;
6205;SDS011;3136;48.788;9.772;2024-02-26T01:03:44;2.83;;;1.83;;
6205;SDS011;3136;48.788;9.772;2024-02-26T01:06:10;2.97;;;1.90;;
6205;SDS011;3136;48.788;9.772;2024-02-26T01:08:36;2.60;;;1.47;;
6205;SDS011;3136;48.788;9.772;2024-02-26T01:11:02;2.00;;;1.67;;
6205;SDS011;3136;48.788;9.772;2024-02-26T01:13:28;2.47;;;1.50;;
6205;SDS011;3136;48.788;9.772;2024-02-26T01:15:54;1.90;;;1.60;;
6205;SDS011;3136;48.788;9.772;2024-02-26T01:18:20;3.23;;;1.50;;
6205;SDS011;3136;48.788;9.772;2024-02-26T01:20:45;1.73;;;1.60;;
6205;SDS011;3136;48.788;9.772;2024-02-26T01:23:12;3.90;;;1.50;;
6205;SDS011;3136;48.788;9.772;2024-02-26T01:25:37;2.83;;;1.60;;
6205;SDS011;3136;48.788;9.772;2024-02-26T01:28:04;3.83;;;1.50;;
6205;SDS011;3136;48.788;9.772;2024-02-26T01:30:30;1.73;;;1.47;;
6205;SDS011;3136;48.788;9.772;2024-02-26T01:32:56;3.90;;;1.60;;
6205;SDS011;3136;48.788;9.772;2024-02-26T01:35:21;2.73;;;2.00;;
6205;SDS011;3136;48.788;9.772;2024-02-26T01:37:47;2.40;;;1.80;;
6205;SDS011;3136;48.788;9.772;2024-02-26T01:40:13;2.90;;;1.60;;
6205;SDS011;3136;48.788;9.772;2024-02-26T01:42:44;4.57;;;1.93;;
6205;SDS011;3136;48.788;9.772;2024-02-26T01:45:14;1.70;;;1.57;;
6205;SDS011;3136;48.788;9.772;2024-02-26T01:47:46;3.03;;;1.60;;
6205;SDS011;3136;48.788;9.772;2024-02-26T01:50:14;4.60;;;1.80;;
6205;SDS011;3136;48.788;9.772;2024-02-26T01:52:40;2.27;;;1.80;;
6205;SDS011;3136;48.788;9.772;2024-02-26T01:55:06;1.70;;;1.50;;
6205;SDS011;3136;48.788;9.772;2024-02-26T01:57:33;2.57;;;1.80;;
6205;SDS011;3136;48.788;9.772;2024-02-26T01:59:59;3.87;;;1.77;;
6205;SDS011;3136;48.788;9.772;2024-02-26T02:02:24;4.57;;;1.70;;
6205;SDS011;3136;48.788;9.772;2024-02-26T02:04:51;1.83;;;1.53;;
6205;SDS011;3136;48.788;9.772;2024-02-26T02:07:16;3.00;;;1.70;;
6205;SDS011;3136;48.788;9.772;2024-02-26T02:09:43;3.87;;;1.50;;
6205;SDS011;3136;48.788;9.772;2024-02-26T02:12:10;2.20;;;1.60;;
6205;SDS011;3136;48.788;9.772;2024-02-26T02:14:36;2.17;;;1.50;;
6205;SDS011;3136;48.788;9.772;2024-02-26T02:17:01;1.43;;;1.23;;
6205;SDS011;3136;48.788;9.772;2024-02-26T02:19:27;1.87;;;1.70;;
6205;SDS011;3136;48.788;9.772;2024-02-26T02:21:53;2.23;;;1.60;;
6205;SDS011;3136;48.788;9.772;2024-02-26T02:24:18;2.10;;;1.40;;
6205;SDS011;3136;48.788;9.772;2024-02-26T02:26:44;1.87;;;1.27;;
6205;SDS011;3136;48.788;9.772;2024-02-26T02:29:09;1.97;;;1.47;;
6205;SDS011;3136;48.788;9.772;2024-02-26T02:31:36;1.80;;;1.50;;
6205;SDS011;3136;48.788;9.772;2024-02-26T02:34:02;1.37;;;1.20;;
6205;SDS011;3136;48.788;9.772;2024-02-26T02:36:28;3.60;;;1.40;;
6205;SDS011;3136;48.788;9.772;2024-02-26T02:38:53;1.60;;;1.30;;
6205;SDS011;3136;48.788;9.772;2024-02-26T02:41:19;2.40;;;1.50;;
6205;SDS011;3136;48.788;9.772;2024-02-26T02:43:45;2.53;;;1.50;;
6205;SDS011;3136;48.788;9.772;2024-02-26T02:46:10;3.90;;;1.50;;
6205;SDS011;3136;48.788;9.772;2024-02-26T02:48:38;2.23;;;1.50;;
6205;SDS011;3136;48.788;9.772;2024-02-26T02:51:06;1.37;;;1.27;;
6205;SDS011;3136;48.788;9.772;2024-02-26T02:53:31;1.70;;;1.40;;
6205;SDS011;3136;48.788;9.772;2024-02-26T02:55:57;2.33;;;1.43;;
6205;SDS011;3136;48.788;9.772;2024-02-26T02:58:22;3.47;;;1.57;;
6205;SDS011;3136;48.788;9.772;2024-02-26T03:00:48;3.93;;;1.50;;
6205;SDS011;3136;48.788;9.772;2024-02-26T03:03:13;2.50;;;1.30;;
6205;SDS011;3136;48.788;9.772;2024-02-26T03:05:39;1.97;;;1.40;;
6205;SDS011;3136;48.788;9.772;2024-02-26T03:08:04;2.43;;;1.37;;
6205;SDS011;3136;48.788;9.772;2024-02-26T03:10:30;2.10;;;1.70;;
6205;SDS011;3136;48.788;9.772;2024-02-26T03:12:56;2.87;;;1.60;;
6205;SDS011;3136;48.788;9.772;2024-02-26T03:15:22;2.87;;;1.30;;
6205;SDS011;3136;48.788;9.772;2024-02-26T03:17:47;3.30;;;1.43;;
6205;SDS011;3136;48.788;9.772;2024-02-26T03:20:13;1.73;;;1.50;;
6205;SDS011;3136;48.788;9.772;2024-02-26T03:22:39;2.53;;;1.80;;
6205;SDS011;3136;48.788;9.772;2024-02-26T03:25:05;3.23;;;1.50;;
6205;SDS011;3136;48.788;9.772;2024-02-26T03:27:31;2.20;;;1.40;;
6205;SDS011;3136;48.788;9.772;2024-02-26T03:29:57;2.43;;;1.60;;
6205;SDS011;3136;48.788;9.772;2024-02-26T03:32:23;2.73;;;1.60;;
6205;SDS011;3136;48.788;9.772;2024-02-26T03:34:49;8.13;;;1.73;;
6205;SDS011;3136;48.788;9.772;2024-02-26T03:37:14;2.33;;;1.90;;
6205;SDS011;3136;48.788;9.772;2024-02-26T03:39:40;3.53;;;1.67;;
6205;SDS011;3136;48.788;9.772;2024-02-26T03:42:06;2.73;;;1.83;;
6205;SDS011;3136;48.788;9.772;2024-02-26T03:44:31;1.70;;;1.47;;
6205;SDS011;3136;48.788;9.772;2024-02-26T03:46:57;2.27;;;1.53;;
6205;SDS011;3136;48.788;9.772;2024-02-26T03:49:22;2.50;;;1.87;;
6205;SDS011;3136;48.788;9.772;2024-02-26T03:51:48;2.10;;;1.53;;
6205;SDS011;3136;48.788;9.772;2024-02-26T03:54:14;2.37;;;1.70;;
6205;SDS011;3136;48.788;9.772;2024-02-26T03:56:39;2.50;;;1.70;;
6205;SDS011;3136;48.788;9.772;2024-02-26T03:59:05;2.00;;;1.63;;
6205;SDS011;3136;48.788;9.772;2024-02-26T04:01:31;2.80;;;1.73;;
6205;SDS011;3136;48.788;9.772;2024-02-26T04:03:56;2.27;;;1.50;;
6205;SDS011;3136;48.788;9.772;2024-02-26T04:06:22;2.33;;;1.60;;
6205;SDS011;3136;48.788;9.772;2024-02-26T04:08:47;3.13;;;1.47;;
6205;SDS011;3136;48.788;9.772;2024-02-26T04:11:13;2.37;;;1.70;;
6205;SDS011;3136;48.788;9.772;2024-02-26T04:13:42;3.93;;;1.70;;
6205;SDS011;3136;48.788;9.772;2024-02-26T04:16:14;3.47;;;2.00;;
6205;SDS011;3136;48.788;9.772;2024-02-26T04:18:41;3.63;;;1.70;;
6205;SDS011;3136;48.788;9.772;2024-02-26T04:21:06;2.33;;;1.50;;
6205;SDS011;3136;48.788;9.772;2024-02-26T04:23:32;4.57;;;1.73;;
6205;SDS011;3136;48.788;9.772;2024-02-26T04:25:58;2.47;;;1.80;;
6205;SDS011;3136;48.788;9.772;2024-02-26T04:28:24;2.53;;;1.90;;
6205;SDS011;3136;48.788;9.772;2024-02-26T04:30:54;2.97;;;2.10;;
6205;SDS011;3136;48.788;9.772;2024-02-26T04:33:20;2.60;;;1.90;;
6205;SDS011;3136;48.788;9.772;2024-02-26T04:35:46;3.67;;;1.90;;
6205;SDS011;3136;48.788;9.772;2024-02-26T04:38:12;4.43;;;2.00;;
6205;SDS011;3136;48.788;9.772;2024-02-26T04:40:37;4.30;;;2.23;;
6205;SDS011;3136;48.788;9.772;2024-02-26T04:43:03;3.30;;;2.20;;
6205;SDS011;3136;48.788;9.772;2024-02-26T04:45:29;4.00;;;2.07;;
6205;SDS011;3136;48.788;9.772;2024-02-26T04:47:54;2.63;;;2.10;;
6205;SDS011;3136;48.788;9.772;2024-02-26T04:50:20;5.53;;;2.50;;
6205;SDS011;3136;48.788;9.772;2024-02-26T04:52:45;2.17;;;1.90;;
6205;SDS011;3136;48.788;9.772;2024-02-26T04:55:11;3.70;;;2.10;;
6205;SDS011;3136;48.788;9.772;2024-02-26T04:57:36;3.37;;;1.70;;
6205;SDS011;3136;48.788;9.772;2024-02-26T05:00:03;2.80;;;2.10;;
6205;SDS011;3136;48.788;9.772;2024-02-26T05:02:30;3.53;;;2.47;;
6205;SDS011;3136;48.788;9.772;2024-02-26T05:04:57;3.80;;;2.50;;
6205;SDS011;3136;48.788;9.772;2024-02-26T05:07:22;2.60;;;2.20;;
6205;SDS011;3136;48.788;9.772;2024-02-26T05:09:48;3.23;;;2.10;;
6205;SDS011;3136;48.788;9.772;2024-02-26T05:12:14;3.90;;;2.20;;
6205;SDS011;3136;48.788;9.772;2024-02-26T05:14:40;4.10;;;2.17;;
6205;SDS011;3136;48.788;9.772;2024-02-26T05:17:06;3.27;;;2.17;;
6205;SDS011;3136;48.788;9.772;2024-02-26T05:19:31;3.97;;;2.47;;
6205;SDS011;3136;48.788;9.772;2024-02-26T05:21:57;2.77;;;2.00;;
6205;SDS011;3136;48.788;9.772;2024-02-26T05:24:23;5.50;;;2.03;;
6205;SDS011;3136;48.788;9.772;2024-02-26T05:26:48;3.10;;;1.90;;
6205;SDS011;3136;48.788;9.772;2024-02-26T05:29:14;2.30;;;2.00;;
6205;SDS011;3136;48.788;9.772;2024-02-26T05:31:41;2.97;;;2.30;;
6205;SDS011;3136;48.788;9.772;2024-02-26T05:34:07;5.23;;;2.57;;
6205;SDS011;3136;48.788;9.772;2024-02-26T05:36:33;7.20;;;2.90;;
6205;SDS011;3136;48.788;9.772;2024-02-26T05:38:59;3.70;;;2.80;;
6205;SDS011;3136;48.788;9.772;2024-02-26T05:41:25;3.33;;;2.50;;
6205;SDS011;3136;48.788;9.772;2024-02-26T05:43:54;4.20;;;2.50;;
6205;SDS011;3136;48.788;9.772;2024-02-26T05:46:20;3.37;;;2.47;;
6205;SDS011;3136;48.788;9.772;2024-02-26T05:48:47;4.93;;;2.30;;
6205;SDS011;3136;48.788;9.772;2024-02-26T05:51:14;4.57;;;2.70;;
6205;SDS011;3136;48.788;9.772;2024-02-26T05:53:42;4.07;;;2.90;;
6205;SDS011;3136;48.788;9.772;2024-02-26T05:56:08;4.40;;;3.00;;
6205;SDS011;3136;48.788;9.772;2024-02-26T05:58:34;3.87;;;2.50;;
6205;SDS011;3136;48.788;9.772;2024-02-26T06:00:59;2.83;;;2.30;;
6205;SDS011;3136;48.788;9.772;2024-02-26T06:03:25;2.60;;;2.10;;
6205;SDS011;3136;48.788;9.772;2024-02-26T06:05:51;4.20;;;1.83;;
6205;SDS011;3136;48.788;9.772;2024-02-26T06:08:17;2.00;;;1.80;;
6205;SDS011;3136;48.788;9.772;2024-02-26T06:10:43;2.50;;;1.93;;
6205;SDS011;3136;48.788;9.772;2024-02-26T06:13:08;5.13;;;2.30;;
6205;SDS011;3136;48.788;9.772;2024-02-26T06:15:34;3.80;;;2.63;;
6205;SDS011;3136;48.788;9.772;2024-02-26T06:17:59;2.60;;;2.27;;
6205;SDS011;3136;48.788;9.772;2024-02-26T06:20:25;6.27;;;2.57;;
6205;SDS011;3136;48.788;9.772;2024-02-26T06:22:50;4.13;;;2.20;;
6205;SDS011;3136;48.788;9.772;2024-02-26T06:25:16;2.60;;;2.20;;
6205;SDS011;3136;48.788;9.772;2024-02-26T06:27:42;3.93;;;2.17;;
6205;SDS011;3136;48.788;9.772;2024-02-26T06:30:07;2.87;;;2.30;;
6205;SDS011;3136;48.788;9.772;2024-02-26T06:32:35;9.87;;;2.67;;
6205;SDS011;3136;48.788;9.772;2024-02-26T06:35:02;2.57;;;2.10;;
6205;SDS011;3136;48.788;9.772;2024-02-26T06:37:31;2.50;;;1.97;;
6205;SDS011;3136;48.788;9.772;2024-02-26T06:39:58;2.63;;;2.13;;
6205;SDS011;3136;48.788;9.772;2024-02-26T06:42:24;2.93;;;2.17;;
6205;SDS011;3136;48.788;9.772;2024-02-26T06:44:50;5.67;;;4.60;;
6205;SDS011;3136;48.788;9.772;2024-02-26T06:47:15;5.07;;;4.10;;
6205;SDS011;3136;48.788;9.772;2024-02-26T06:49:41;5.50;;;4.17;;
6205;SDS011;3136;48.788;9.772;2024-02-26T06:52:07;8.37;;;5.10;;
6205;SDS011;3136;48.788;9.772;2024-02-26T06:54:32;4.97;;;3.33;;
6205;SDS011;3136;48.788;9.772;2024-02-26T06:56:58;2.83;;;2.43;;
6205;SDS011;3136;48.788;9.772;2024-02-26T06:59:24;3.13;;;2.50;;
6205;SDS011;3136;48.788;9.772;2024-02-26T07:01:49;3.07;;;2.30;;
6205;SDS011;3136;48.788;9.772;2024-02-26T07:04:15;2.47;;;2.10;;
6205;SDS011;3136;48.788;9.772;2024-02-26T07:06:40;4.37;;;2.80;;
6205;SDS011;3136;48.788;9.772;2024-02-26T07:09:07;4.50;;;3.00;;
6205;SDS011;3136;48.788;9.772;2024-02-26T07:11:33;3.03;;;2.60;;
6205;SDS011;3136;48.788;9.772;2024-02-26T07:13:59;3.77;;;3.10;;
6205;SDS011;3136;48.788;9.772;2024-02-26T07:16:26;3.70;;;2.73;;
6205;SDS011;3136;48.788;9.772;2024-02-26T07:18:52;4.80;;;2.77;;
6205;SDS011;3136;48.788;9.772;2024-02-26T07:21:17;3.17;;;2.70;;
6205;SDS011;3136;48.788;9.772;2024-02-26T07:23:43;2.70;;;2.37;;
6205;SDS011;3136;48.788;9.772;2024-02-26T07:26:08;4.87;;;3.60;;
6205;SDS011;3136;48.788;9.772;2024-02-26T07:28:36;3.53;;;2.53;;
6205;SDS011;3136;48.788;9.772;2024-02-26T07:31:02;2.77;;;2.10;;
6205;SDS011;3136;48.788;9.772;2024-02-26T07:33:28;2.93;;;2.20;;
6205;SDS011;3136;48.788;9.772;2024-02-26T07:35:53;2.50;;;2.00;;
6205;SDS011;3136;48.788;9.772;2024-02-26T07:38:19;3.60;;;2.40;;
6205;SDS011;3136;48.788;9.772;2024-02-26T07:40:45;4.23;;;2.47;;
6205;SDS011;3136;48.788;9.772;2024-02-26T07:43:10;3.93;;;2.20;;
6205;SDS011;3136;48.788;9.772;2024-02-26T07:45:36;4.40;;;2.70;;
6205;SDS011;3136;48.788;9.772;2024-02-26T07:48:02;4.03;;;2.83;;
6205;SDS011;3136;48.788;9.772;2024-02-26T07:50:27;3.50;;;2.37;;
6205;SDS011;3136;48.788;9.772;2024-02-26T07:52:53;4.47;;;2.27;;
6205;SDS011;3136;48.788;9.772;2024-02-26T07:55:19;3.50;;;2.70;;
6205;SDS011;3136;48.788;9.772;2024-02-26T07:57:44;5.30;;;2.30;;
6205;SDS011;3136;48.788;9.772;2024-02-26T08:00:10;4.43;;;2.83;;
6205;SDS011;3136;48.788;9.772;2024-02-26T08:02:36;3.70;;;2.60;;
6205;SDS011;3136;48.788;9.772;2024-02-26T08:05:02;4.53;;;2.83;;
6205;SDS011;3136;48.788;9.772;2024-02-26T08:07:28;4.43;;;2.70;;
6205;SDS011;3136;48.788;9.772;2024-02-26T08:09:54;3.43;;;2.50;;
6205;SDS011;3136;48.788;9.772;2024-02-26T08:12:19;4.10;;;2.80;;
6205;SDS011;3136;48.788;9.772;2024-02-26T08:14:45;4.70;;;2.70;;
6205;SDS011;3136;48.788;9.772;2024-02-26T08:17:11;3.50;;;2.60;;
6205;SDS011;3136;48.788;9.772;2024-02-26T08:19:37;3.10;;;2.47;;
6205;SDS011;3136;48.788;9.772;2024-02-26T08:22:02;4.03;;;2.53;;
6205;SDS011;3136;48.788;9.772;2024-02-26T08:24:28;4.30;;;2.37;;
6205;SDS011;3136;48.788;9.772;2024-02-26T08:26:54;4.87;;;2.57;;
6205;SDS011;3136;48.788;9.772;2024-02-26T08:29:19;4.20;;;2.60;;
6205;SDS011;3136;48.788;9.772;2024-02-26T08:31:45;5.13;;;2.97;;
6205;SDS011;3136;48.788;9.772;2024-02-26T08:34:10;4.27;;;3.30;;
6205;SDS011;3136;48.788;9.772;2024-02-26T08:36:36;3.77;;;3.03;;
6205;SDS011;3136;48.788;9.772;2024-02-26T08:39:02;8.67;;;3.27;;
6205;SDS011;3136;48.788;9.772;2024-02-26T08:41:28;4.93;;;3.03;;
6205;SDS011;3136;48.788;9.772;2024-02-26T08:43:54;5.33;;;3.60;;
6205;SDS011;3136;48.788;9.772;2024-02-26T08:46:19;3.70;;;2.90;;
6205;SDS011;3136;48.788;9.772;2024-02-26T08:48:45;3.87;;;2.90;;
6205;SDS011;3136;48.788;9.772;2024-02-26T08:51:10;5.20;;;3.10;;
6205;SDS011;3136;48.788;9.772;2024-02-26T08:53:36;5.27;;;3.50;;
6205;SDS011;3136;48.788;9.772;2024-02-26T08:56:02;4.00;;;3.07;;
6205;SDS011;3136;48.788;9.772;2024-02-26T08:58:28;5.53;;;3.50;;
6205;SDS011;3136;48.788;9.772;2024-02-26T09:00:54;4.63;;;3.33;;
6205;SDS011;3136;48.788;9.772;2024-02-26T09:03:20;4.03;;;3.10;;
6205;SDS011;3136;48.788;9.772;2024-02-26T09:05:46;4.00;;;2.90;;
6205;SDS011;3136;48.788;9.772;2024-02-26T09:08:11;4.57;;;3.27;;
6205;SDS011;3136;48.788;9.772;2024-02-26T09:10:37;5.30;;;3.10;;
6205;SDS011;3136;48.788;9.772;2024-02-26T09:13:04;3.77;;;3.17;;
6205;SDS011;3136;48.788;9.772;2024-02-26T09:15:29;7.07;;;3.40;;
6205;SDS011;3136;48.788;9.772;2024-02-26T09:17:55;5.87;;;3.70;;
6205;SDS011;3136;48.788;9.772;2024-02-26T09:20:20;4.30;;;3.60;;
6205;SDS011;3136;48.788;9.772;2024-02-26T09:22:48;6.13;;;3.90;;
6205;SDS011;3136;48.788;9.772;2024-02-26T09:25:14;6.13;;;3.57;;
6205;SDS011;3136;48.788;9.772;2024-02-26T09:27:43;7.00;;;3.80;;
6205;SDS011;3136;48.788;9.772;2024-02-26T09:30:12;6.17;;;3.80;;
6205;SDS011;3136;48.788;9.772;2024-02-26T09:32:41;5.30;;;3.60;;
6205;SDS011;3136;48.788;9.772;2024-02-26T09:35:12;5.37;;;3.57;;
6205;SDS011;3136;48.788;9.772;2024-02-26T09:37:38;5.30;;;3.77;;
6205;SDS011;3136;48.788;9.772;2024-02-26T09:40:04;5.57;;;3.60;;
6205;SDS011;3136;48.788;9.772;2024-02-26T09:42:31;4.67;;;3.20;;
6205;SDS011;3136;48.788;9.772;2024-02-26T09:44:58;5.73;;;3.73;;
6205;SDS011;3136;48.788;9.772;2024-02-26T09:47:28;5.37;;;3.80;;
6205;SDS011;3136;48.788;9.772;2024-02-26T09:49:56;6.37;;;3.63;;
6205;SDS011;3136;48.788;9.772;2024-02-26T09:52:23;4.27;;;3.50;;
6205;SDS011;3136;48.788;9.772;2024-02-26T09:54:50;6.00;;;3.70;;
6205;SDS011;3136;48.788;9.772;2024-02-26T09:57:16;6.07;;;3.60;;
6205;SDS011;3136;48.788;9.772;2024-02-26T09:59:43;7.10;;;4.30;;
6205;SDS011;3136;48.788;9.772;2024-02-26T10:02:10;5.83;;;3.63;;
6205;SDS011;3136;48.788;9.772;2024-02-26T10:04:38;6.50;;;4.10;;
6205;SDS011;3136;48.788;9.772;2024-02-26T10:07:05;6.13;;;3.53;;
6205;SDS011;3136;48.788;9.772;2024-02-26T10:09:35;6.60;;;3.47;;
6205;SDS011;3136;48.788;9.772;2024-02-26T10:12:01;5.23;;;3.50;;
6205;SDS011;3136;48.788;9.772;2024-02-26T10:14:27;4.70;;;3.30;;
6205;SDS011;3136;48.788;9.772;2024-02-26T10:16:53;5.00;;;3.40;;
6205;SDS011;3136;48.788;9.772;2024-02-26T10:19:25;5.13;;;3.30;;
6205;SDS011;3136;48.788;9.772;2024-02-26T10:21:59;5.40;;;3.13;;
6205;SDS011;3136;48.788;9.772;2024-02-26T10:24:26;5.83;;;3.50;;
6205;SDS011;3136;48.788;9.772;2024-02-26T10:26:53;5.73;;;3.80;;
6205;SDS011;3136;48.788;9.772;2024-02-26T10:29:20;8.60;;;3.73;;
6205;SDS011;3136;48.788;9.772;2024-02-26T10:31:47;5.43;;;3.30;;
6205;SDS011;3136;48.788;9.772;2024-02-26T10:34:12;4.07;;;3.30;;
6205;SDS011;3136;48.788;9.772;2024-02-26T10:36:40;4.70;;;2.93;;
6205;SDS011;3136;48.788;9.772;2024-02-26T10:39:06;5.33;;;3.30;;
6205;SDS011;3136;48.788;9.772;2024-02-26T10:41:35;4.13;;;3.10;;
6205;SDS011;3136;48.788;9.772;2024-02-26T10:44:00;4.70;;;3.17;;
6205;SDS011;3136;48.788;9.772;2024-02-26T10:46:26;3.80;;;3.00;;
6205;SDS011;3136;48.788;9.772;2024-02-26T10:48:52;5.90;;;3.40;;
6205;SDS011;3136;48.788;9.772;2024-02-26T10:51:25;5.87;;;3.13;;
6205;SDS011;3136;48.788;9.772;2024-02-26T10:53:54;3.60;;;2.60;;
6205;SDS011;3136;48.788;9.772;2024-02-26T10:56:27;3.33;;;3.00;;
6205;SDS011;3136;48.788;9.772;2024-02-26T10:58:54;5.40;;;3.43;;
6205;SDS011;3136;48.788;9.772;2024-02-26T11:01:21;6.30;;;3.60;;
6205;SDS011;3136;48.788;9.772;2024-02-26T11:03:51;4.97;;;3.40;;
6205;SDS011;3136;48.788;9.772;2024-02-26T11:06:18;6.07;;;3.57;;
6205;SDS011;3136;48.788;9.772;2024-02-26T11:08:49;4.57;;;3.30;;
6205;SDS011;3136;48.788;9.772;2024-02-26T11:11:18;5.00;;;3.13;;
6205;SDS011;3136;48.788;9.772;2024-02-26T11:13:45;3.97;;;2.80;;
6205;SDS011;3136;48.788;9.772;2024-02-26T11:16:19;4.53;;;3.13;;
6205;SDS011;3136;48.788;9.772;2024-02-26T11:18:46;4.27;;;3.00;;
6205;SDS011;3136;48.788;9.772;2024-02-26T11:21:15;7.30;;;3.30;;
6205;SDS011;3136;48.788;9.772;2024-02-26T11:23:44;3.43;;;2.73;;
6205;SDS011;3136;48.788;9.772;2024-02-26T11:26:13;5.10;;;2.80;;
6205;SDS011;3136;48.788;9.772;2024-02-26T11:28:41;4.43;;;2.80;;
6205;SDS011;3136;48.788;9.772;2024-02-26T11:31:09;6.33;;;2.53;;
6205;SDS011;3136;48.788;9.772;2024-02-26T11:33:35;3.47;;;2.43;;
6205;SDS011;3136;48.788;9.772;2024-02-26T11:36:02;4.10;;;2.70;;
6205;SDS011;3136;48.788;9.772;2024-02-26T11:38:32;4.77;;;2.60;;
6205;SDS011;3136;48.788;9.772;2024-02-26T11:40:58;3.70;;;2.60;;
6205;SDS011;3136;48.788;9.772;2024-02-26T11:46:29;4.07;;;2.30;;
6205;SDS011;3136;48.788;9.772;2024-02-26T11:49:00;2.80;;;2.20;;
6205;SDS011;3136;48.788;9.772;2024-02-26T11:51:28;4.00;;;2.60;;
6205;SDS011;3136;48.788;9.772;2024-02-26T11:53:58;3.80;;;2.57;;
6205;SDS011;3136;48.788;9.772;2024-02-26T11:56:24;3.00;;;2.10;;
6205;SDS011;3136;48.788;9.772;2024-02-26T11:58:57;3.00;;;2.07;;
6205;SDS011;3136;48.788;9.772;2024-02-26T12:01:42;3.97;;;2.30;;
6205;SDS011;3136;48.788;9.772;2024-02-26T12:04:19;4.03;;;2.23;;
6205;SDS011;3136;48.788;9.772;2024-02-26T12:06:51;2.50;;;2.20;;
6205;SDS011;3136;48.788;9.772;2024-02-26T12:12:05;3.17;;;2.40;;
6205;SDS011;3136;48.788;9.772;2024-02-26T12:14:51;2.70;;;2.23;;
6205;SDS011;3136;48.788;9.772;2024-02-26T12:17:21;5.87;;;2.60;;
6205;SDS011;3136;48.788;9.772;2024-02-26T12:19:48;3.70;;;2.70;;
6205;SDS011;3136;48.788;9.772;2024-02-26T12:22:14;3.50;;;2.47;;
6205;SDS011;3136;48.788;9.772;2024-02-26T12:24:40;3.17;;;2.53;;
6205;SDS011;3136;48.788;9.772;2024-02-26T12:27:06;7.33;;;2.80;;
6205;SDS011;3136;48.788;9.772;2024-02-26T12:29:32;3.43;;;2.90;;
6205;SDS011;3136;48.788;9.772;2024-02-26T12:31:58;3.27;;;2.50;;
6205;SDS011;3136;48.788;9.772;2024-02-26T12:34:23;3.60;;;2.50;;
6205;SDS011;3136;48.788;9.772;2024-02-26T12:36:49;5.00;;;2.57;;
6205;SDS011;3136;48.788;9.772;2024-02-26T12:39:16;8.40;;;2.88;;
6205;SDS011;3136;48.788;9.772;2024-02-26T12:41:41;9.10;;;3.00;;
6205;SDS011;3136;48.788;9.772;2024-02-26T12:44:14;9.70;;;3.00;;
6205;SDS011;3136;48.788;9.772;2024-02-26T12:46:42;5.23;;;2.50;;
6205;SDS011;3136;48.788;9.772;2024-02-26T12:49:08;3.27;;;2.60;;
6205;SDS011;3136;48.788;9.772;2024-02-26T12:51:39;18.53;;;3.40;;
6205;SDS011;3136;48.788;9.772;2024-02-26T12:54:06;21.07;;;4.53;;
6205;SDS011;3136;48.788;9.772;2024-02-26T12:56:33;12.47;;;3.30;;
6205;SDS011;3136;48.788;9.772;2024-02-26T12:58:59;38.03;;;6.40;;
6205;SDS011;3136;48.788;9.772;2024-02-26T13:01:25;8.43;;;3.03;;
6205;SDS011;3136;48.788;9.772;2024-02-26T13:03:52;4.53;;;3.00;;
6205;SDS011;3136;48.788;9.772;2024-02-26T13:06:18;10.00;;;2.90;;
6205;SDS011;3136;48.788;9.772;2024-02-26T13:08:47;7.27;;;2.80;;
6205;SDS011;3136;48.788;9.772;2024-02-26T13:11:14;6.60;;;2.87;;
6205;SDS011;3136;48.788;9.772;2024-02-26T13:13:39;6.00;;;2.80;;
6205;SDS011;3136;48.788;9.772;2024-02-26T13:16:06;3.33;;;2.50;;
6205;SDS011;3136;48.788;9.772;2024-02-26T13:18:34;5.53;;;2.80;;
6205;SDS011;3136;48.788;9.772;2024-02-26T13:21:08;4.27;;;3.23;;
6205;SDS011;3136;48.788;9.772;2024-02-26T13:23:38;4.20;;;2.80;;
6205;SDS011;3136;48.788;9.772;2024-02-26T13:26:07;4.43;;;2.90;;
6205;SDS011;3136;48.788;9.772;2024-02-26T13:28:36;4.57;;;3.00;;
6205;SDS011;3136;48.788;9.772;2024-02-26T13:31:02;5.70;;;3.07;;
6205;SDS011;3136;48.788;9.772;2024-02-26T13:33:30;4.43;;;3.00;;
6205;SDS011;3136;48.788;9.772;2024-02-26T13:35:56;8.37;;;3.53;;
6205;SDS011;3136;48.788;9.772;2024-02-26T13:38:23;7.90;;;3.20;;
6205;SDS011;3136;48.788;9.772;2024-02-26T13:40:49;5.03;;;3.30;;
6205;SDS011;3136;48.788;9.772;2024-02-26T13:43:15;5.67;;;3.33;;
6205;SDS011;3136;48.788;9.772;2024-02-26T13:45:41;4.60;;;3.17;;
6205;SDS011;3136;48.788;9.772;2024-02-26T13:48:09;5.63;;;3.50;;
6205;SDS011;3136;48.788;9.772;2024-02-26T13:50:36;5.07;;;3.20;;
6205;SDS011;3136;48.788;9.772;2024-02-26T13:53:02;4.80;;;3.70;;
6205;SDS011;3136;48.788;9.772;2024-02-26T13:55:29;5.37;;;3.50;;
6205;SDS011;3136;48.788;9.772;2024-02-26T13:57:56;4.23;;;3.50;;
6205;SDS011;3136;48.788;9.772;2024-02-26T14:00:23;6.23;;;4.00;;
6205;SDS011;3136;48.788;9.772;2024-02-26T14:02:49;4.63;;;3.57;;
6205;SDS011;3136;48.788;9.772;2024-02-26T14:05:17;5.87;;;3.50;;
6205;SDS011;3136;48.788;9.772;2024-02-26T14:07:42;5.53;;;4.00;;
6205;SDS011;3136;48.788;9.772;2024-02-26T14:10:08;7.07;;;5.23;;
6205;SDS011;3136;48.788;9.772;2024-02-26T14:12:36;4.80;;;3.70;;
6205;SDS011;3136;48.788;9.772;2024-02-26T14:15:02;5.40;;;4.23;;
6205;SDS011;3136;48.788;9.772;2024-02-26T14:17:30;6.00;;;4.10;;
6205;SDS011;3136;48.788;9.772;2024-02-26T14:19:55;5.50;;;4.07;;
6205;SDS011;3136;48.788;9.772;2024-02-26T14:22:21;10.47;;;4.60;;
6205;SDS011;3136;48.788;9.772;2024-02-26T14:24:47;9.63;;;5.07;;
6205;SDS011;3136;48.788;9.772;2024-02-26T14:27:13;7.97;;;4.97;;
6205;SDS011;3136;48.788;9.772;2024-02-26T14:29:42;6.47;;;4.43;;
6205;SDS011;3136;48.788;9.772;2024-02-26T14:32:08;6.60;;;4.40;;
6205;SDS011;3136;48.788;9.772;2024-02-26T14:34:34;9.57;;;5.20;;
6205;SDS011;3136;48.788;9.772;2024-02-26T14:37:00;8.30;;;6.00;;
6205;SDS011;3136;48.788;9.772;2024-02-26T14:39:26;16.33;;;8.60;;
6205;SDS011;3136;48.788;9.772;2024-02-26T14:41:51;24.37;;;13.70;;
6205;SDS011;3136;48.788;9.772;2024-02-26T14:44:17;7.80;;;5.87;;
6205;SDS011;3136;48.788;9.772;2024-02-26T14:46:42;7.57;;;5.47;;
6205;SDS011;3136;48.788;9.772;2024-02-26T14:49:08;8.20;;;5.17;;
6205;SDS011;3136;48.788;9.772;2024-02-26T14:51:34;8.53;;;5.23;;
6205;SDS011;3136;48.788;9.772;2024-02-26T14:54:00;8.77;;;4.63;;
6205;SDS011;3136;48.788;9.772;2024-02-26T14:56:27;7.93;;;4.87;;
6205;SDS011;3136;48.788;9.772;2024-02-26T14:58:52;7.23;;;4.07;;
6205;SDS011;3136;48.788;9.772;2024-02-26T15:01:18;5.77;;;3.93;;
6205;SDS011;3136;48.788;9.772;2024-02-26T15:03:43;5.67;;;3.53;;
6205;SDS011;3136;48.788;9.772;2024-02-26T15:06:09;5.17;;;3.90;;
6205;SDS011;3136;48.788;9.772;2024-02-26T15:08:35;6.67;;;3.73;;
6205;SDS011;3136;48.788;9.772;2024-02-26T15:11:00;4.30;;;3.20;;
6205;SDS011;3136;48.788;9.772;2024-02-26T15:13:26;4.40;;;3.10;;
6205;SDS011;3136;48.788;9.772;2024-02-26T15:15:52;4.53;;;3.10;;